KBVU

Details ICAO KBVU (BLD)
Name BOULDER CITY MUNI
Region United States
Timezone America/Los_Angeles (UTC-7.0)
Plans Departing 26
Arriving 18
Stats Elevation 2,201 ft / 671 m (AMSL)
Location 35.948366° -114.859580°
Runways 3
Magnetic Variation 11.512° E
Sunrise 2018-05-21 12:30:54 UTC / 2018-05-21 05:30:54 Local
Sunset 2018-05-22 02:44:03 UTC / 2018-05-21 19:44:03 Local
Advertisement - Login to hide

Runways

ID Width Length Bearing (true) Bearing (mag) Surface Threshold Offset Overrun Length
09L 60 ft / 18 m 2,197 ft / 670 m 103.75° 92.24° Asphalt 0 ft / 0 m 0 ft / 0 m
09R 75 ft / 23 m 4,792 ft / 1,461 m 103.76° 92.25° Asphalt 0 ft / 0 m 0 ft / 0 m
15 75 ft / 23 m 3,859 ft / 1,176 m 164.77° 153.26° Asphalt 0 ft / 0 m 0 ft / 0 m
27L 75 ft / 23 m 4,792 ft / 1,461 m 283.77° 272.26° Asphalt 0 ft / 0 m 0 ft / 0 m
27R 60 ft / 18 m 2,197 ft / 670 m 283.75° 272.24° Asphalt 0 ft / 0 m 0 ft / 0 m
33 75 ft / 23 m 3,859 ft / 1,176 m 344.77° 333.26° Asphalt 0 ft / 0 m 0 ft / 0 m

Map

Weather


0- 5 10 15 20 25 30 35+ Temperature / ° C

Clouds and Precipitation
Forecast for 2018-05-21 18:00 UTC. Updated 20 minutes ago

Ground ~20,000 ft ~40,000 ft Winds

METAR

KBVU 211535Z AUTO 14010KT 10SM CLR 24/04 A2976 RMK AO2

TAF

Not found

Frequencies

Unicom 122.70 MHz CTAF/UNICOM
Warning: Do not use this data for real-world aviation or navigation. No guarantee of current accuracy is given.